Time;durP1;ratioP1;P1;durP2;ratioP2;P2;SDS_P1;SDS_P2;PMS_P1;PMS_P2;Temp;Humidity;BMP_temperature;BMP_pressure;BME280_temperature;BME280_humidity;BME280_pressure;Samples;Min_cycle;Max_cycle;Signal;HPM_P1;HPM_P2
2022/11/11 00:01:42;;;;;;;59.00;16.30;;;7.20;99.90;;;;;;5091451;28;20447;-68
2022/11/11 00:04:10;;;;;;;51.83;15.60;;;7.10;99.90;;;;;;5091976;28;20490;-68
2022/11/11 00:06:38;;;;;;;43.73;18.00;;;7.00;99.90;;;;;;5092348;28;20458;-68
2022/11/11 00:09:04;;;;;;;56.97;16.50;;;7.00;99.90;;;;;;5091946;28;20451;-68
2022/11/11 00:11:31;;;;;;;50.03;17.30;;;7.00;99.90;;;;;;5106407;28;20501;-68
2022/11/11 00:13:57;;;;;;;154.00;17.43;;;7.00;99.90;;;;;;5091914;28;20471;-68
2022/11/11 00:16:24;;;;;;;106.37;17.20;;;7.00;99.90;;;;;;5091685;28;20451;-68
2022/11/11 00:27:07;;;;;;;204.43;20.33;;;6.70;99.90;;;;;;5091669;28;20441;-68
2022/11/11 00:29:34;;;;;;;123.40;16.13;;;6.60;99.90;;;;;;5104161;28;20449;-68
2022/11/11 00:35:52;;;;;;;184.50;17.87;;;6.50;99.90;;;;;;5091244;28;20842;-68
2022/11/11 00:37:33;;;;;;;239.97;18.60;;;6.40;99.90;;;;;;5094395;28;20452;-68
2022/11/11 00:39:59;;;;;;;188.27;17.90;;;6.40;99.90;;;;;;5111460;28;20887;-68
2022/11/11 00:42:26;;;;;;;195.13;16.97;;;6.30;99.90;;;;;;5097015;28;20535;-68
2022/11/11 00:44:53;;;;;;;196.50;17.17;;;6.30;99.90;;;;;;5091289;28;20479;-68
2022/11/11 00:52:52;;;;;;;139.13;12.47;;;6.20;99.90;;;;;;5095914;28;20498;-68
2022/11/11 00:55:18;;;;;;;57.70;12.37;;;6.10;99.90;;;;;;5094563;28;20486;-68
2022/11/11 00:57:45;;;;;;;89.13;12.87;;;6.00;99.90;;;;;;5091453;28;20852;-68
2022/11/11 01:00:13;;;;;;;109.90;12.97;;;6.00;99.90;;;;;;5090503;28;21279;-68
2022/11/11 01:02:40;;;;;;;82.10;12.77;;;6.00;99.90;;;;;;5091403;28;20466;-68
2022/11/11 01:05:07;;;;;;;160.37;12.00;;;5.90;99.90;;;;;;5091012;28;20492;-68
2022/11/11 01:07:34;;;;;;;216.73;14.33;;;5.90;99.90;;;;;;5090807;28;20947;-68
2022/11/11 01:10:02;;;;;;;137.93;12.90;;;5.80;99.90;;;;;;5094588;28;20489;-69
2022/11/11 01:12:28;;;;;;;156.23;13.20;;;5.80;99.90;;;;;;5090293;28;20468;-69
2022/11/11 01:14:55;;;;;;;133.60;12.50;;;5.80;99.90;;;;;;5091242;28;20481;-68
2022/11/11 01:17:21;;;;;;;135.80;13.37;;;5.70;99.90;;;;;;5091104;28;20460;-68
2022/11/11 01:19:48;;;;;;;119.23;12.63;;;5.70;99.90;;;;;;5091920;28;20455;-68
2022/11/11 01:22:15;;;;;;;135.67;13.80;;;5.70;99.90;;;;;;5095163;28;20467;-68
2022/11/11 01:24:41;;;;;;;107.63;11.67;;;5.70;99.90;;;;;;5094078;28;20479;-68
2022/11/11 01:27:09;;;;;;;110.43;12.07;;;5.70;99.90;;;;;;5094954;28;20451;-68
2022/11/11 01:29:36;;;;;;;85.60;12.47;;;5.70;99.90;;;;;;5095198;28;20459;-68
2022/11/11 01:32:03;;;;;;;112.97;12.40;;;5.70;99.90;;;;;;5094210;28;20447;-68
2022/11/11 01:34:30;;;;;;;160.00;13.70;;;5.70;99.90;;;;;;5094846;28;20445;-68
2022/11/11 01:36:56;;;;;;;132.43;14.10;;;5.70;99.90;;;;;;5095048;28;20501;-68
2022/11/11 01:39:23;;;;;;;146.77;14.97;;;5.80;99.90;;;;;;5095425;28;20455;-68
2022/11/11 01:41:50;;;;;;;72.53;12.20;;;5.80;99.90;;;;;;5094985;28;20449;-68
2022/11/11 01:44:35;;;;;;;82.73;12.97;;;5.80;99.90;;;;;;5106995;28;20539;-68
2022/11/11 01:47:05;;;;;;;82.13;13.33;;;5.90;99.90;;;;;;5115094;28;20446;-68
2022/11/11 01:49:33;;;;;;;81.77;13.40;;;5.90;99.90;;;;;;5114922;27;20444;-68
2022/11/11 01:52:05;;;;;;;31.73;11.30;;;5.90;99.90;;;;;;5101763;28;20815;-68
2022/11/11 01:54:36;;;;;;;54.87;13.23;;;5.90;99.90;;;;;;5094460;28;20462;-68
2022/11/11 01:57:08;;;;;;;185.83;14.80;;;6.00;99.90;;;;;;5093885;28;20456;-68
2022/11/11 01:59:39;;;;;;;140.23;15.30;;;6.00;99.90;;;;;;5102811;28;20469;-68
2022/11/11 02:02:11;;;;;;;187.07;14.63;;;6.00;99.90;;;;;;5103186;28;20458;-68
2022/11/11 02:07:23;;;;;;;182.67;14.77;;;6.00;99.90;;;;;;5074271;28;20792;-68
2022/11/11 02:09:52;;;;;;;166.73;14.70;;;6.00;99.90;;;;;;5078853;28;20985;-68
2022/11/11 02:15:06;;;;;;;54.33;13.33;;;5.90;99.90;;;;;;5093953;28;21065;-68
2022/11/11 02:17:33;;;;;;;91.67;12.63;;;6.00;99.90;;;;;;5094114;28;20455;-68
2022/11/11 02:20:01;;;;;;;149.40;14.83;;;6.00;99.90;;;;;;5094046;28;20489;-68
2022/11/11 02:22:42;;;;;;;261.83;16.53;;;6.00;99.90;;;;;;5093690;28;20559;-68
2022/11/11 02:25:14;;;;;;;165.07;16.73;;;6.00;99.90;;;;;;5094276;28;20480;-68
2022/11/11 02:27:45;;;;;;;273.00;18.33;;;6.00;99.90;;;;;;5094230;28;20460;-68
2022/11/11 02:30:15;;;;;;;116.63;16.47;;;6.10;99.90;;;;;;5093331;28;20458;-68
2022/11/11 02:32:43;;;;;;;287.10;18.80;;;6.10;99.90;;;;;;5093292;28;20479;-68
2022/11/11 02:35:16;;;;;;;232.23;17.40;;;6.10;99.90;;;;;;5093232;28;20536;-68
2022/11/11 02:37:46;;;;;;;140.67;16.57;;;6.10;99.90;;;;;;5094099;28;20458;-68
2022/11/11 02:40:17;;;;;;;267.63;18.20;;;6.10;99.90;;;;;;5100773;28;20451;-68
2022/11/11 02:42:44;;;;;;;249.17;18.87;;;6.10;99.90;;;;;;5113540;28;20830;-68
2022/11/11 02:45:11;;;;;;;269.30;19.63;;;6.00;99.90;;;;;;5105359;28;20481;-68
2022/11/11 02:47:37;;;;;;;266.20;17.97;;;6.00;99.90;;;;;;5093644;28;20457;-68
2022/11/11 02:50:05;;;;;;;246.03;17.00;;;6.10;99.90;;;;;;5099457;28;20444;-68
2022/11/11 02:52:32;;;;;;;137.93;17.10;;;6.00;99.90;;;;;;5114173;28;20471;-69
2022/11/11 02:54:59;;;;;;;323.53;20.70;;;6.00;99.90;;;;;;5102707;28;20454;-68
2022/11/11 02:57:27;;;;;;;67.07;14.10;;;5.90;99.90;;;;;;5093695;28;20453;-68
2022/11/11 02:59:54;;;;;;;279.80;19.60;;;5.90;99.90;;;;;;5093121;28;20514;-68
2022/11/11 03:02:20;;;;;;;127.63;15.50;;;5.80;99.90;;;;;;5092761;28;20820;-68
2022/11/11 03:04:47;;;;;;;256.50;17.10;;;5.80;99.90;;;;;;5093211;28;20477;-68
2022/11/11 03:07:14;;;;;;;151.67;15.57;;;5.80;99.90;;;;;;5092908;28;20533;-68
2022/11/11 03:09:40;;;;;;;135.87;16.20;;;5.80;99.90;;;;;;5093063;28;20463;-68
2022/11/11 03:12:07;;;;;;;180.90;16.33;;;5.80;99.90;;;;;;5092900;28;20449;-68
2022/11/11 03:14:35;;;;;;;179.93;17.23;;;5.80;99.90;;;;;;5092674;28;20494;-68
2022/11/11 03:19:51;;;;;;;117.03;14.23;;;5.80;99.90;;;;;;5092469;28;20487;-68
2022/11/11 03:22:17;;;;;;;111.57;14.07;;;5.80;99.90;;;;;;5092823;28;20467;-68
2022/11/11 03:27:27;;;;;;;74.80;13.83;;;5.60;99.90;;;;;;5092545;28;20200;-68
2022/11/11 03:29:55;;;;;;;87.40;12.90;;;5.60;99.90;;;;;;5092832;28;20503;-68
2022/11/11 03:32:22;;;;;;;107.33;14.70;;;5.50;99.90;;;;;;5091295;28;20469;-68
2022/11/11 03:34:49;;;;;;;111.47;14.37;;;5.60;99.90;;;;;;5092579;28;20445;-68
2022/11/11 03:39:59;;;;;;;84.40;12.60;;;5.50;99.90;;;;;;5096406;28;20513;-69
2022/11/11 03:42:26;;;;;;;107.80;13.63;;;5.50;99.90;;;;;;5093574;28;20474;-69
2022/11/11 03:44:54;;;;;;;77.27;12.87;;;5.50;99.90;;;;;;5106978;28;20483;-69
2022/11/11 03:47:21;;;;;;;99.57;14.30;;;5.50;99.90;;;;;;5104000;28;20510;-69
2022/11/11 03:49:47;;;;;;;108.70;11.90;;;5.40;99.90;;;;;;5092453;28;20452;-68
2022/11/11 03:52:14;;;;;;;137.47;14.80;;;5.40;99.90;;;;;;5091387;28;20964;-69
2022/11/11 03:54:41;;;;;;;148.47;14.50;;;5.40;99.90;;;;;;5093903;28;20971;-69
2022/11/11 03:59:52;;;;;;;150.40;14.03;;;5.40;99.90;;;;;;5092126;28;20489;-69
2022/11/11 04:10:35;;;;;;;88.97;12.97;;;5.10;99.90;;;;;;5101422;28;20484;-68
2022/11/11 04:24:02;;;;;;;46.73;10.47;;;4.80;99.90;;;;;;5082301;28;20485;-69
2022/11/11 04:26:28;;;;;;;49.03;10.23;;;4.70;99.90;;;;;;5091788;28;20853;-69
2022/11/11 04:32:34;;;;;;;82.03;11.13;;;4.70;99.90;;;;;;5091406;28;20204;-69
2022/11/11 04:34:26;;;;;;;87.80;11.83;;;4.70;99.90;;;;;;5091715;28;20442;-69
2022/11/11 04:36:53;;;;;;;79.33;11.20;;;4.80;99.90;;;;;;5090953;28;20450;-69
2022/11/11 04:42:03;;;;;;;183.93;15.07;;;4.90;99.90;;;;;;5091113;28;20449;-69
2022/11/11 04:47:14;;;;;;;109.87;14.17;;;5.00;99.90;;;;;;5091765;28;20455;-70
2022/11/11 04:49:42;;;;;;;212.63;16.10;;;5.00;99.90;;;;;;5103854;28;20451;-70
2022/11/11 04:52:28;;;;;;;247.83;16.97;;;5.00;99.90;;;;;;5091381;28;20537;-70
2022/11/11 04:57:41;;;;;;;164.63;14.27;;;5.00;99.90;;;;;;5091177;28;20527;-70
2022/11/11 05:00:10;;;;;;;108.13;13.90;;;5.00;99.90;;;;;;5094143;28;20877;-70
2022/11/11 05:05:23;;;;;;;109.10;14.87;;;5.00;99.90;;;;;;5097832;28;20488;-70
2022/11/11 05:10:35;;;;;;;83.63;12.93;;;5.10;99.90;;;;;;5091709;28;20568;-70
2022/11/11 05:21:30;;;;;;;146.73;15.40;;;5.30;99.90;;;;;;5080730;28;20481;-70
2022/11/11 05:26:41;;;;;;;170.03;16.90;;;5.20;99.90;;;;;;5091027;28;20426;-70
2022/11/11 05:29:08;;;;;;;167.87;16.10;;;5.10;99.90;;;;;;5090683;28;20461;-70
2022/11/11 05:31:35;;;;;;;72.73;14.73;;;5.20;99.90;;;;;;5101465;28;20460;-70
2022/11/11 05:34:01;;;;;;;59.70;13.80;;;5.30;99.90;;;;;;5090140;28;20475;-70
2022/11/11 05:36:29;;;;;;;120.27;18.03;;;5.30;99.90;;;;;;5090919;28;20465;-70
2022/11/11 05:38:56;;;;;;;146.27;16.33;;;5.40;99.90;;;;;;5090665;28;20834;-70
2022/11/11 05:41:23;;;;;;;101.57;14.83;;;5.30;99.90;;;;;;5090365;28;20910;-69
2022/11/11 05:43:49;;;;;;;179.27;17.30;;;5.30;99.90;;;;;;5090733;28;20478;-70
2022/11/11 05:46:16;;;;;;;120.10;15.43;;;5.30;99.90;;;;;;5090156;28;20493;-70
2022/11/11 05:51:27;;;;;;;87.43;15.47;;;5.30;99.90;;;;;;5102361;28;21011;-70
2022/11/11 05:53:56;;;;;;;157.67;17.03;;;5.30;99.90;;;;;;5103604;28;20497;-70
2022/11/11 05:56:23;;;;;;;108.00;15.23;;;5.30;99.90;;;;;;5090811;28;20865;-70
2022/11/11 05:58:50;;;;;;;89.17;15.57;;;5.30;99.90;;;;;;5089966;28;20973;-70
2022/11/11 06:01:17;;;;;;;74.93;15.20;;;5.30;99.90;;;;;;5096713;28;20455;-70
2022/11/11 06:03:43;;;;;;;158.60;17.70;;;5.30;99.90;;;;;;5093611;28;20523;-70
2022/11/11 06:06:10;;;;;;;98.67;15.47;;;5.30;99.90;;;;;;5090191;28;20490;-69
2022/11/11 06:08:37;;;;;;;82.67;15.67;;;5.40;99.90;;;;;;5094547;28;20447;-70
2022/11/11 06:11:05;;;;;;;131.80;17.10;;;5.40;99.90;;;;;;5093593;28;20450;-70
2022/11/11 06:13:32;;;;;;;139.40;17.30;;;5.40;99.90;;;;;;5094278;28;20484;-71
2022/11/11 06:15:59;;;;;;;78.93;16.13;;;5.30;99.90;;;;;;5094025;28;20443;-72
2022/11/11 06:18:26;;;;;;;74.77;14.63;;;5.30;99.90;;;;;;5093785;28;20450;-72
2022/11/11 06:20:53;;;;;;;161.30;16.90;;;5.30;99.90;;;;;;5100936;28;20442;-70
2022/11/11 06:23:20;;;;;;;118.40;14.90;;;5.20;99.90;;;;;;5114529;28;20560;-70
2022/11/11 06:28:33;;;;;;;135.03;16.97;;;5.10;99.90;;;;;;5092275;28;21015;-72
2022/11/11 06:31:00;;;;;;;166.00;18.10;;;5.00;99.90;;;;;;5091516;28;20480;-70
2022/11/11 06:33:27;;;;;;;119.40;17.27;;;5.00;99.90;;;;;;5093490;28;20467;-72
2022/11/11 06:35:53;;;;;;;59.67;14.40;;;5.00;99.90;;;;;;5093159;28;20454;-71
2022/11/11 06:38:21;;;;;;;78.47;12.97;;;5.00;99.90;;;;;;5094350;28;20451;-71
2022/11/11 06:40:48;;;;;;;87.13;14.13;;;5.00;99.90;;;;;;5093458;28;20453;-71
2022/11/11 06:43:14;;;;;;;87.73;13.90;;;5.00;99.90;;;;;;5093284;28;20477;-71
2022/11/11 06:45:42;;;;;;;73.90;13.50;;;5.00;99.90;;;;;;5092946;28;20558;-71
2022/11/11 06:48:09;;;;;;;92.10;14.07;;;5.00;99.90;;;;;;5073787;28;20448;-70
2022/11/11 06:50:36;;;;;;;103.93;13.20;;;5.00;99.90;;;;;;5084686;28;20451;-71
2022/11/11 06:53:06;;;;;;;100.93;14.73;;;4.90;99.90;;;;;;5091354;28;20482;-70
2022/11/11 06:55:33;;;;;;;108.80;13.67;;;4.90;99.90;;;;;;5107983;28;20483;-71
2022/11/11 06:58:05;;;;;;;101.87;13.10;;;4.90;99.90;;;;;;5092918;28;20463;-70
2022/11/11 07:00:32;;;;;;;121.50;14.80;;;4.90;99.90;;;;;;5096215;28;20567;-70
2022/11/11 07:03:00;;;;;;;138.57;14.40;;;4.80;99.90;;;;;;5093195;28;20553;-71
2022/11/11 07:05:26;;;;;;;169.43;15.80;;;4.70;99.90;;;;;;5092890;28;20554;-71
2022/11/11 07:07:53;;;;;;;149.87;15.27;;;4.60;99.90;;;;;;5093307;28;20477;-71
2022/11/11 07:10:20;;;;;;;154.17;14.23;;;4.60;99.90;;;;;;5092661;28;20449;-71
2022/11/11 07:12:47;;;;;;;115.10;15.33;;;4.60;99.90;;;;;;5089208;28;20470;-71
2022/11/11 07:15:14;;;;;;;103.60;15.07;;;4.60;99.90;;;;;;5086655;28;20447;-71
2022/11/11 07:17:41;;;;;;;198.30;16.20;;;4.70;99.90;;;;;;5088674;28;20452;-71
2022/11/11 07:20:10;;;;;;;144.60;14.73;;;4.80;99.90;;;;;;5089127;28;21013;-71
2022/11/11 07:22:37;;;;;;;172.07;15.97;;;4.90;99.90;;;;;;5094359;28;20478;-71
2022/11/11 07:25:05;;;;;;;173.60;16.40;;;5.00;99.90;;;;;;5088957;28;20483;-71
2022/11/11 07:27:32;;;;;;;123.73;15.53;;;5.00;99.90;;;;;;5088687;28;20446;-71
2022/11/11 07:29:58;;;;;;;77.70;14.97;;;5.10;99.90;;;;;;5088960;28;20959;-71
2022/11/11 07:32:25;;;;;;;73.87;14.47;;;5.10;99.90;;;;;;5089133;28;20551;-71
2022/11/11 07:34:52;;;;;;;70.70;14.53;;;5.20;99.90;;;;;;5088907;28;21041;-70
2022/11/11 07:37:20;;;;;;;119.50;15.67;;;5.30;99.90;;;;;;5088473;28;20453;-71
2022/11/11 07:39:46;;;;;;;146.63;15.30;;;5.30;99.90;;;;;;5089443;28;21635;-71
2022/11/11 07:42:14;;;;;;;110.80;16.07;;;5.40;99.90;;;;;;5088282;28;20451;-72
2022/11/11 07:44:41;;;;;;;127.50;16.27;;;5.40;99.90;;;;;;5089320;28;20439;-71
2022/11/11 07:47:08;;;;;;;111.17;15.67;;;5.40;99.90;;;;;;5088608;28;20439;-71
2022/11/11 07:49:34;;;;;;;62.13;15.93;;;5.40;99.90;;;;;;5089001;28;20458;-71
2022/11/11 07:52:01;;;;;;;129.43;18.13;;;5.40;99.90;;;;;;5088550;28;20456;-71
2022/11/11 07:54:29;;;;;;;127.17;16.90;;;5.50;99.90;;;;;;5087923;28;20505;-71
2022/11/11 07:56:56;;;;;;;92.03;16.00;;;5.50;99.90;;;;;;5088582;28;21006;-71
2022/11/11 07:59:23;;;;;;;64.67;15.40;;;5.50;99.90;;;;;;5088041;28;20487;-72
2022/11/11 08:01:50;;;;;;;106.87;16.50;;;5.60;99.90;;;;;;5087487;28;20455;-71
2022/11/11 08:04:16;;;;;;;201.47;18.90;;;5.60;99.90;;;;;;5087509;28;20497;-71
2022/11/11 08:06:43;;;;;;;109.03;17.30;;;5.50;99.90;;;;;;5088124;28;20487;-72
2022/11/11 08:09:09;;;;;;;114.43;16.77;;;5.50;99.90;;;;;;5088350;28;20974;-73
2022/11/11 08:14:22;;;;;;;85.23;19.17;;;5.40;99.90;;;;;;5087465;28;20422;-72
2022/11/11 08:16:49;;;;;;;88.27;17.20;;;5.40;99.90;;;;;;5088000;28;20456;-71
2022/11/11 08:19:15;;;;;;;139.43;18.10;;;5.40;99.90;;;;;;5088304;28;20447;-72
2022/11/11 08:21:42;;;;;;;151.37;17.97;;;5.40;99.90;;;;;;5088375;28;20485;-72
2022/11/11 08:24:09;;;;;;;177.77;19.20;;;5.40;99.90;;;;;;5087331;28;20520;-72
2022/11/11 08:26:37;;;;;;;97.20;16.60;;;5.30;99.90;;;;;;5086819;28;20494;-72
2022/11/11 08:29:04;;;;;;;143.83;17.10;;;5.30;99.90;;;;;;5087447;28;20487;-72
2022/11/11 08:31:31;;;;;;;159.93;18.80;;;5.30;99.90;;;;;;5087280;28;20443;-72
2022/11/11 08:33:58;;;;;;;157.00;16.70;;;5.30;99.90;;;;;;5087676;28;20477;-71
2022/11/11 08:36:25;;;;;;;128.40;17.90;;;5.30;99.90;;;;;;5088163;28;20971;-72
2022/11/11 08:38:52;;;;;;;140.87;16.77;;;5.30;99.90;;;;;;5087014;28;20967;-72
2022/11/11 08:41:20;;;;;;;177.30;17.70;;;5.30;99.90;;;;;;5087665;28;20464;-72
2022/11/11 08:43:52;;;;;;;119.30;20.43;;;5.30;99.90;;;;;;5087646;28;20497;-72
2022/11/11 08:46:18;;;;;;;115.40;16.30;;;5.40;99.90;;;;;;5087683;28;20481;-72
2022/11/11 08:48:46;;;;;;;101.37;15.80;;;5.40;99.90;;;;;;5087845;28;20456;-72
2022/11/11 08:51:13;;;;;;;115.73;16.00;;;5.40;99.90;;;;;;5086888;28;20530;-72
2022/11/11 08:53:40;;;;;;;96.03;16.00;;;5.40;99.90;;;;;;5087706;28;20482;-72
2022/11/11 08:56:07;;;;;;;153.87;19.50;;;5.40;99.90;;;;;;5087433;28;20459;-72
2022/11/11 08:58:34;;;;;;;173.30;18.60;;;5.30;99.90;;;;;;5087474;28;20446;-72
2022/11/11 09:01:10;;;;;;;163.23;17.30;;;5.30;99.90;;;;;;5087705;28;21705;-73
2022/11/11 09:03:36;;;;;;;169.50;17.40;;;5.30;99.90;;;;;;5086533;28;20470;-72
2022/11/11 09:06:03;;;;;;;103.77;17.23;;;5.40;99.90;;;;;;5087555;28;20466;-73
2022/11/11 09:08:30;;;;;;;119.23;17.27;;;5.40;99.90;;;;;;5087297;28;20452;-71
2022/11/11 09:10:58;;;;;;;68.57;18.50;;;5.40;99.90;;;;;;5086465;28;20955;-71
2022/11/11 09:13:25;;;;;;;124.03;19.63;;;5.40;99.90;;;;;;5087760;28;20579;-71
2022/11/11 09:15:53;;;;;;;82.90;17.10;;;5.60;99.90;;;;;;5086781;28;20443;-72
2022/11/11 09:18:21;;;;;;;82.03;17.50;;;5.70;99.90;;;;;;5087078;28;20444;-71
2022/11/11 09:20:48;;;;;;;91.67;19.37;;;5.70;99.90;;;;;;5087212;28;20482;-71
2022/11/11 09:23:14;;;;;;;138.97;19.47;;;5.80;99.90;;;;;;5086004;28;21775;-71
2022/11/11 09:25:41;;;;;;;81.40;19.87;;;5.90;99.90;;;;;;5087833;28;20820;-71
2022/11/11 09:28:08;;;;;;;122.27;21.07;;;6.00;99.90;;;;;;5086865;28;20459;-71
2022/11/11 09:30:34;;;;;;;94.47;20.20;;;6.10;99.90;;;;;;5086765;28;20490;-71
2022/11/11 09:33:02;;;;;;;81.63;19.20;;;6.20;99.90;;;;;;5086906;28;21005;-71
2022/11/11 09:35:30;;;;;;;122.53;20.37;;;6.30;99.90;;;;;;5087270;28;20482;-70
2022/11/11 09:37:59;;;;;;;147.73;21.97;;;6.30;99.90;;;;;;5087510;28;20473;-71
2022/11/11 09:40:27;;;;;;;116.93;25.37;;;6.40;99.90;;;;;;5087779;28;20457;-70
2022/11/11 09:43:03;;;;;;;108.00;22.30;;;6.30;99.90;;;;;;5090326;28;20471;-70
2022/11/11 09:45:39;;;;;;;106.97;24.53;;;6.30;99.90;;;;;;5089868;28;20502;-70
2022/11/11 09:48:38;;;;;;;151.03;22.60;;;6.30;99.90;;;;;;5091600;28;20488;-70
2022/11/11 09:51:15;;;;;;;96.00;23.27;;;6.30;99.90;;;;;;5091042;28;20981;-71
2022/11/11 09:53:47;;;;;;;77.57;21.53;;;6.30;99.90;;;;;;5091255;28;20480;-70
2022/11/11 09:56:19;;;;;;;56.90;20.30;;;6.40;99.90;;;;;;5090140;28;20465;-70
2022/11/11 09:58:50;;;;;;;76.57;22.27;;;6.50;99.90;;;;;;5091077;28;20991;-71
2022/11/11 10:01:20;;;;;;;113.30;21.17;;;6.60;99.90;;;;;;5090249;28;20458;-70
2022/11/11 10:03:50;;;;;;;93.27;21.53;;;6.70;99.90;;;;;;5091296;28;20471;-70
2022/11/11 10:06:23;;;;;;;113.07;19.40;;;6.70;99.90;;;;;;5090411;28;20481;-70
2022/11/11 10:09:01;;;;;;;126.87;21.77;;;6.70;99.90;;;;;;5091369;28;20495;-70
2022/11/11 10:11:39;;;;;;;139.07;21.57;;;6.70;99.90;;;;;;5091090;28;20456;-70
2022/11/11 10:14:06;;;;;;;87.97;22.13;;;6.70;99.90;;;;;;5091046;28;20468;-70
2022/11/11 10:16:44;;;;;;;143.60;22.60;;;6.70;99.90;;;;;;5090990;28;20454;-70
2022/11/11 10:19:23;;;;;;;142.83;21.93;;;6.70;99.90;;;;;;5091265;28;20581;-70
2022/11/11 10:21:53;;;;;;;93.90;23.77;;;6.70;99.90;;;;;;5087776;28;20492;-70
2022/11/11 10:24:29;;;;;;;107.77;27.33;;;6.70;99.90;;;;;;5090774;28;20519;-70
2022/11/11 10:26:56;;;;;;;189.83;26.70;;;6.70;99.90;;;;;;5090926;28;20574;-70
2022/11/11 10:29:26;;;;;;;259.50;88.80;;;6.80;99.90;;;;;;5090231;28;21197;-70
2022/11/11 10:31:58;;;;;;;106.33;41.70;;;6.80;99.90;;;;;;5090486;28;20469;-70
2022/11/11 10:34:32;;;;;;;95.50;25.27;;;6.90;99.90;;;;;;5090231;28;21163;-70
2022/11/11 10:37:01;;;;;;;128.30;23.90;;;6.90;99.90;;;;;;5090706;28;20450;-71
2022/11/11 10:39:42;;;;;;;78.90;24.43;;;7.00;99.90;;;;;;5090580;28;20461;-72
2022/11/11 10:42:16;;;;;;;79.77;24.43;;;7.00;99.90;;;;;;5090150;28;20446;-71
2022/11/11 10:44:43;;;;;;;105.93;34.60;;;7.10;99.90;;;;;;5090077;28;20534;-72
2022/11/11 10:47:18;;;;;;;80.10;23.40;;;7.30;99.90;;;;;;5089994;28;20897;-71
2022/11/11 10:49:53;;;;;;;82.90;28.70;;;7.30;99.90;;;;;;5090446;28;20975;-71
2022/11/11 10:52:25;;;;;;;83.57;26.53;;;7.40;99.90;;;;;;5089187;28;20470;-72
2022/11/11 10:54:58;;;;;;;76.53;25.50;;;7.50;99.90;;;;;;5089727;28;20480;-71
2022/11/11 10:57:29;;;;;;;71.67;27.40;;;7.50;99.90;;;;;;5089578;28;20988;-72
2022/11/11 11:00:02;;;;;;;91.53;26.30;;;7.50;99.90;;;;;;5089653;28;20447;-71
2022/11/11 11:02:34;;;;;;;98.37;26.47;;;7.50;99.90;;;;;;5089590;28;20819;-71
2022/11/11 11:05:06;;;;;;;136.17;26.97;;;7.50;99.90;;;;;;5089996;28;20453;-71
2022/11/11 11:07:41;;;;;;;110.20;29.03;;;7.50;99.90;;;;;;5090038;28;20919;-71
2022/11/11 11:10:13;;;;;;;128.53;27.40;;;7.50;99.90;;;;;;5089255;28;20822;-71
2022/11/11 11:12:47;;;;;;;84.63;30.57;;;7.40;99.90;;;;;;5088450;28;20493;-76
2022/11/11 11:15:19;;;;;;;106.17;28.97;;;7.60;99.90;;;;;;5089906;28;20977;-78
2022/11/11 11:17:53;;;;;;;95.90;28.00;;;7.80;99.90;;;;;;5089408;28;20454;-76
2022/11/11 11:20:21;;;;;;;78.23;29.23;;;7.90;99.90;;;;;;5087569;28;20505;-75
2022/11/11 11:22:51;;;;;;;110.73;36.50;;;7.80;99.90;;;;;;5087909;28;20486;-75
2022/11/11 11:25:20;;;;;;;106.32;39.55;;;7.80;99.90;;;;;;5088495;28;20444;-70
2022/11/11 11:27:49;;;;;;;97.77;32.33;;;7.80;99.90;;;;;;5088508;28;20228;-69
2022/11/11 11:30:18;;;;;;;77.47;27.80;;;7.70;99.90;;;;;;5088020;28;20459;-69
2022/11/11 11:32:57;;;;;;;79.63;27.93;;;7.60;99.90;;;;;;5088703;28;20478;-70
2022/11/11 11:35:41;;;;;;;428.23;162.60;;;7.60;99.90;;;;;;5088988;28;20445;-69
2022/11/11 11:38:11;;;;;;;223.97;76.60;;;7.70;99.90;;;;;;5088847;28;20453;-69
2022/11/11 11:40:52;;;;;;;201.10;54.23;;;7.70;99.90;;;;;;5088481;28;20461;-69
2022/11/11 11:43:27;;;;;;;222.27;82.30;;;7.70;99.90;;;;;;5087891;28;20463;-69
2022/11/11 11:45:59;;;;;;;125.70;33.40;;;7.70;99.90;;;;;;5087319;28;20468;-69
2022/11/11 11:48:38;;;;;;;141.57;29.40;;;7.60;99.90;;;;;;5087992;28;20479;-69
2022/11/11 11:51:18;;;;;;;85.90;30.20;;;7.50;99.90;;;;;;5088179;28;20464;-69
2022/11/11 11:54:00;;;;;;;91.37;29.70;;;7.50;99.90;;;;;;5087528;28;20485;-69
2022/11/11 11:56:36;;;;;;;79.67;28.10;;;7.40;99.90;;;;;;5088228;28;20443;-69
2022/11/11 11:59:10;;;;;;;80.27;27.90;;;7.50;99.90;;;;;;5087030;28;20448;-69
2022/11/11 12:01:50;;;;;;;82.73;28.97;;;7.40;99.90;;;;;;5088041;28;20471;-69
2022/11/11 12:04:42;;;;;;;102.53;30.23;;;7.50;99.90;;;;;;5087344;28;20482;-69
2022/11/11 12:07:15;;;;;;;101.43;29.20;;;7.50;99.90;;;;;;5087651;28;20478;-69
2022/11/11 12:09:57;;;;;;;142.47;29.20;;;7.50;99.90;;;;;;5087808;28;20453;-69
2022/11/11 12:12:32;;;;;;;72.10;27.70;;;7.50;99.90;;;;;;5086844;28;20489;-69
2022/11/11 12:15:10;;;;;;;72.30;30.17;;;7.50;99.90;;;;;;5087702;28;20462;-69
2022/11/11 12:17:48;;;;;;;101.67;28.60;;;7.60;99.90;;;;;;5087217;28;20442;-70
2022/11/11 12:20:17;;;;;;;77.63;28.93;;;7.60;99.90;;;;;;5087285;28;20953;-70
2022/11/11 12:23:17;;;;;;;91.53;31.30;;;7.50;99.90;;;;;;5086843;28;20458;-68
2022/11/11 12:25:59;;;;;;;80.20;28.87;;;7.50;99.90;;;;;;5085674;28;20438;-70
2022/11/11 12:28:40;;;;;;;127.20;30.40;;;7.50;99.90;;;;;;5087255;28;20453;-69
2022/11/11 12:31:30;;;;;;;84.47;30.20;;;7.40;99.90;;;;;;5085731;28;20448;-68
2022/11/11 12:34:10;;;;;;;116.93;31.10;;;7.40;99.90;;;;;;5087871;28;20466;-69
2022/11/11 12:36:44;;;;;;;92.40;29.30;;;7.40;99.90;;;;;;5087339;28;20457;-69
2022/11/11 12:39:26;;;;;;;96.20;30.10;;;7.40;99.90;;;;;;5086581;28;20457;-69
2022/11/11 12:42:08;;;;;;;92.93;30.10;;;7.50;99.90;;;;;;5086636;28;20445;-68
2022/11/11 12:44:44;;;;;;;150.43;32.47;;;7.40;99.90;;;;;;5086474;28;20455;-69
2022/11/11 12:47:37;;;;;;;129.83;33.00;;;7.50;99.90;;;;;;5086252;28;20546;-69
2022/11/11 12:50:15;;;;;;;108.23;30.37;;;7.50;99.90;;;;;;5086203;28;20455;-68
2022/11/11 12:52:56;;;;;;;108.00;32.80;;;7.60;99.90;;;;;;5086517;28;20472;-68
2022/11/11 12:55:27;;;;;;;151.53;34.07;;;7.50;99.90;;;;;;5085912;28;20462;-69
2022/11/11 12:58:08;;;;;;;129.57;30.70;;;7.50;99.90;;;;;;5087460;28;20456;-69
2022/11/11 13:00:39;;;;;;;102.53;34.13;;;7.50;99.90;;;;;;5085936;28;20448;-69
2022/11/11 13:03:18;;;;;;;161.40;33.00;;;7.50;99.90;;;;;;5086775;28;20479;-69
2022/11/11 13:05:50;;;;;;;170.27;32.87;;;7.50;99.90;;;;;;5085991;28;20450;-69
2022/11/11 13:08:45;;;;;;;122.73;36.33;;;7.50;99.90;;;;;;5085648;28;20478;-69
2022/11/11 13:11:19;;;;;;;118.47;33.77;;;7.50;99.90;;;;;;5086362;28;20455;-70
2022/11/11 13:14:04;;;;;;;108.30;33.40;;;7.50;99.90;;;;;;5086842;28;20467;-70
2022/11/11 13:16:31;;;;;;;157.10;33.37;;;7.50;99.90;;;;;;5085516;28;20447;-70
2022/11/11 13:19:03;;;;;;;99.73;33.60;;;7.50;99.90;;;;;;5087227;28;20451;-69
2022/11/11 13:21:36;;;;;;;103.33;33.10;;;7.50;99.90;;;;;;5085618;28;20454;-70
2022/11/11 13:24:04;;;;;;;115.10;33.53;;;7.50;99.90;;;;;;5085944;28;20478;-69
2022/11/11 13:26:37;;;;;;;108.23;34.07;;;7.50;99.90;;;;;;5084605;28;21107;-68
2022/11/11 13:29:47;;;;;;;96.47;31.80;;;7.50;99.90;;;;;;5084470;28;20458;-68
2022/11/11 13:32:19;;;;;;;121.47;35.10;;;7.50;99.90;;;;;;5084073;28;20450;-68
2022/11/11 13:34:47;;;;;;;102.13;31.87;;;7.60;99.90;;;;;;5084566;28;20978;-68
2022/11/11 13:37:21;;;;;;;102.90;33.87;;;7.60;99.90;;;;;;5084670;28;21024;-68
2022/11/11 13:39:51;;;;;;;92.50;33.40;;;7.60;99.90;;;;;;5086257;28;20454;-68
2022/11/11 13:42:24;;;;;;;99.03;32.27;;;7.60;99.90;;;;;;5085903;28;20563;-68
2022/11/11 13:44:56;;;;;;;79.83;28.30;;;7.60;99.90;;;;;;5087806;28;20448;-68
2022/11/11 13:47:27;;;;;;;89.10;31.57;;;7.60;99.90;;;;;;5086317;28;20482;-68
2022/11/11 13:49:57;;;;;;;77.43;30.13;;;7.60;99.90;;;;;;5086520;28;20451;-68
2022/11/11 13:52:27;;;;;;;104.33;30.43;;;7.60;99.90;;;;;;5085619;28;20482;-68
2022/11/11 13:55:00;;;;;;;101.70;32.20;;;7.60;99.90;;;;;;5086104;28;20517;-69
2022/11/11 13:57:30;;;;;;;108.57;32.90;;;7.60;99.90;;;;;;5086397;28;20454;-68
2022/11/11 14:00:01;;;;;;;89.60;30.00;;;7.60;99.90;;;;;;5086042;28;20461;-68
2022/11/11 14:02:31;;;;;;;107.60;34.93;;;7.70;99.90;;;;;;5086213;28;20480;-68
2022/11/11 14:05:21;;;;;;;94.67;32.53;;;7.70;99.90;;;;;;5086159;28;20481;-69
2022/11/11 14:07:55;;;;;;;98.30;33.00;;;7.80;99.90;;;;;;5085758;28;20595;-69
2022/11/11 14:10:54;;;;;;;128.63;32.93;;;7.80;99.90;;;;;;5085911;28;20465;-69
2022/11/11 14:13:41;;;;;;;95.23;31.00;;;7.80;99.90;;;;;;5086018;28;20787;-69
2022/11/11 14:16:32;;;;;;;85.33;32.37;;;7.80;99.90;;;;;;5086704;28;20458;-69